Volgoneft-114 — UBEI4 — position and weather

sailwx.info

Track history (hours):
 
Tides and Currents Weather Stations Pressure Air Temp Water Temp Dewpoint Dewpoint Depression Visibility Wind Speed Wind Dir Waves Ship Positions

Volgoneft-114

Last reported at 2017-Nov-14 06:16 UTC. Time now 2017-Dec-12 10:33 UTC.
Position N 45°31' E 036°46'.
Warning: this ship's position is 28 days out of date.

Length 132 m; draft 2.6 m.

Type: Tanker. MMSI: 273355350.

Date/timePositionNaut miles runAvg speedWind from/ knotsBaromVisibWave heightAir tempDewpointWater temp
2017-Nov-14 06:16N 45°31' E 036°46'2 5.1
2017-Nov-14 05:56N 45°30' E 036°44'2 5.2
2017-Nov-14 05:31N 45°28' E 036°42'3 5.4
2017-Nov-14 05:01N 45°25' E 036°41'4 7.4
2017-Nov-14 04:30N 45°22' E 036°40'2 4.9
2017-Nov-14 04:00N 45°20' E 036°37'3 5.8
2017-Nov-14 03:30N 45°19' E 036°34'4 6.2
2017-Nov-14 02:54N 45°17' E 036°29'1 1.4
2017-Nov-14 02:28N 45°17' E 036°29'1 3.0
2017-Nov-14 02:00N 45°15' E 036°28'2 4.1
2017-Nov-14 01:31N 45°14' E 036°30'0 0.1
2017-Nov-14 01:01N 45°14' E 036°30'0 0.0
2017-Nov-13 23:18N 45°14' E 036°30'1 2.1
2017-Nov-13 22:58N 45°13' E 036°29'2 4.7
2017-Nov-13 22:30N 45°11' E 036°28'3 5.8
2017-Nov-13 21:59N 45°08' E 036°30'2 0.0
2017-Nov-12 08:38N 45°10' E 036°32'2 0.2
2017-Nov-12 01:13N 45°08' E 036°32'1 2.4
2017-Nov-12 00:58N 45°07' E 036°32'6 0.2
2017-Nov-11 00:44N 45°12' E 036°28'2 7.1
2017-Nov-11 00:29N 45°14' E 036°28'3 5.6
2017-Nov-11 00:00N 45°17' E 036°28'4 6.0
2017-Nov-10 23:25N 45°19' E 036°32'3 7.1
2017-Nov-10 23:00N 45°20' E 036°36'3 6.6
2017-Nov-10 22:30N 45°22' E 036°40'3 6.5
2017-Nov-10 22:00N 45°25' E 036°41'3 5.7
2017-Nov-10 21:30N 45°28' E 036°42'1 2.7
2017-Nov-10 20:58N 45°29' E 036°43'1 2.6
2017-Nov-10 20:31N 45°29' E 036°45'0 0.0
2017-Nov-10 17:27N 45°29' E 036°45'0 0.0
2017-Nov-10 16:57N 45°29' E 036°45'0 0.0
2017-Nov-10 10:18N 45°29' E 036°45'0 0.0
2017-Nov-10 09:51N 45°29' E 036°45'0 0.0
2017-Nov-10 09:30N 45°29' E 036°45'0 0.0
2017-Nov-10 02:27N 45°29' E 036°45'0 0.0
2017-Nov-08 18:36N 45°29' E 036°45'0 0.0
2017-Nov-08 18:18N 45°29' E 036°45'0 0.0
2017-Nov-08 16:42N 45°29' E 036°45'0 0.0
2017-Nov-08 16:24N 45°29' E 036°45'0 0.1
2017-Nov-08 16:00N 45°29' E 036°45'0 0.0
2017-Nov-08 15:30N 45°29' E 036°45'0 0.0
2017-Nov-08 14:45N 45°29' E 036°45'0 0.0
2017-Nov-08 14:30N 45°29' E 036°45'0 0.0
2017-Nov-08 13:57N 45°29' E 036°45'0 0.1
2017-Nov-08 09:13N 45°30' E 036°45'0 0.1
2017-Nov-08 08:11N 45°30' E 036°45'1 3.2
2017-Nov-08 08:00N 45°30' E 036°46'  
2017-Nov-04 18:01N 45°31' E 036°49'0 0.0
2017-Nov-04 13:25N 45°31' E 036°50'0 0.0
2017-Nov-04 12:58N 45°31' E 036°50'0 0.0
2017-Nov-04 09:07N 45°31' E 036°50'0 0.0
2017-Nov-04 08:58N 45°31' E 036°50'0 0.0
2017-Nov-04 08:28N 45°31' E 036°50'0 0.0
2017-Nov-04 07:31N 45°31' E 036°50'  
Track history (hours):
 
Tides and Currents Weather Stations Pressure Air Temp Water Temp Dewpoint Dewpoint Depression Visibility Wind Speed Wind Dir Waves Ship Positions

Volgoneft-114

Last reported at 2017-Nov-14 06:16 UTC. Time now 2017-Dec-12 10:33 UTC.
Position N 45°31' E 036°46'.
Warning: this ship's position is 28 days out of date.

Length 132 m; draft 2.6 m.

Type: Tanker. MMSI: 273355350.

Date/timePositionNaut miles runAvg speedWind from/ knotsBaromVisibWave heightAir tempDewpointWater temp
2017-Nov-14 06:16N 45°31' E 036°46'2 5.1
2017-Nov-14 05:56N 45°30' E 036°44'2 5.2
2017-Nov-14 05:31N 45°28' E 036°42'3 5.4
2017-Nov-14 05:01N 45°25' E 036°41'4 7.4
2017-Nov-14 04:30N 45°22' E 036°40'2 4.9
2017-Nov-14 04:00N 45°20' E 036°37'3 5.8
2017-Nov-14 03:30N 45°19' E 036°34'4 6.2
2017-Nov-14 02:54N 45°17' E 036°29'1 1.4
2017-Nov-14 02:28N 45°17' E 036°29'1 3.0
2017-Nov-14 02:00N 45°15' E 036°28'2 4.1
2017-Nov-14 01:31N 45°14' E 036°30'0 0.1
2017-Nov-14 01:01N 45°14' E 036°30'0 0.0
2017-Nov-13 23:18N 45°14' E 036°30'1 2.1
2017-Nov-13 22:58N 45°13' E 036°29'2 4.7
2017-Nov-13 22:30N 45°11' E 036°28'3 5.8
2017-Nov-13 21:59N 45°08' E 036°30'2 0.0
2017-Nov-12 08:38N 45°10' E 036°32'2 0.2
2017-Nov-12 01:13N 45°08' E 036°32'1 2.4
2017-Nov-12 00:58N 45°07' E 036°32'6 0.2
2017-Nov-11 00:44N 45°12' E 036°28'2 7.1
2017-Nov-11 00:29N 45°14' E 036°28'3 5.6
2017-Nov-11 00:00N 45°17' E 036°28'4 6.0
2017-Nov-10 23:25N 45°19' E 036°32'3 7.1
2017-Nov-10 23:00N 45°20' E 036°36'3 6.6
2017-Nov-10 22:30N 45°22' E 036°40'3 6.5
2017-Nov-10 22:00N 45°25' E 036°41'3 5.7
2017-Nov-10 21:30N 45°28' E 036°42'1 2.7
2017-Nov-10 20:58N 45°29' E 036°43'1 2.6
2017-Nov-10 20:31N 45°29' E 036°45'0 0.0
2017-Nov-10 17:27N 45°29' E 036°45'0 0.0
2017-Nov-10 16:57N 45°29' E 036°45'0 0.0
2017-Nov-10 10:18N 45°29' E 036°45'0 0.0
2017-Nov-10 09:51N 45°29' E 036°45'0 0.0
2017-Nov-10 09:30N 45°29' E 036°45'0 0.0
2017-Nov-10 02:27N 45°29' E 036°45'0 0.0
2017-Nov-08 18:36N 45°29' E 036°45'0 0.0
2017-Nov-08 18:18N 45°29' E 036°45'0 0.0
2017-Nov-08 16:42N 45°29' E 036°45'0 0.0
2017-Nov-08 16:24N 45°29' E 036°45'0 0.1
2017-Nov-08 16:00N 45°29' E 036°45'0 0.0
2017-Nov-08 15:30N 45°29' E 036°45'0 0.0
2017-Nov-08 14:45N 45°29' E 036°45'0 0.0
2017-Nov-08 14:30N 45°29' E 036°45'0 0.0
2017-Nov-08 13:57N 45°29' E 036°45'0 0.1
2017-Nov-08 09:13N 45°30' E 036°45'0 0.1
2017-Nov-08 08:11N 45°30' E 036°45'1 3.2
2017-Nov-08 08:00N 45°30' E 036°46'  
2017-Nov-04 18:01N 45°31' E 036°49'0 0.0
2017-Nov-04 13:25N 45°31' E 036°50'0 0.0
2017-Nov-04 12:58N 45°31' E 036°50'0 0.0
2017-Nov-04 09:07N 45°31' E 036°50'0 0.0
2017-Nov-04 08:58N 45°31' E 036°50'0 0.0
2017-Nov-04 08:28N 45°31' E 036°50'0 0.0
2017-Nov-04 07:31N 45°31' E 036°50'  

Dump ship's entire track history